GRL940 LEMD-EKCH
Flight info
| Callsign | GRL940 |
|---|---|
| Flight time | 2h 36m |
| Altitude | 34000 |
| Route | RBO N867 DGO/N0452F400 L176 LUSEM DCT LULUT DCT ADABI DCT BOKNO UN858 VANAD UN874 ARSAF DCT EGOZE DCT CMB DCT VEKIN DCT ADUTO/N0440F390 DCT VICOT DCT DOSUR P729 TUDLO |
| Aircraft | A332/H-SDE3GHIJ2J3J5M1RVWXY/LB2D1 |
Departure
| Time | 2026-05-05 10:42 |
|---|---|
| Airport | Adolfo Suárez Madrid–Barajas Airport (LEMD) |
Arrival
| Time | 2026-05-05 13:18 |
|---|---|
| Airport | Copenhagen Kastrup Airport (EKCH) |
| Time | Latitude | Longitude | Altitude | Speed | Heading |
|---|---|---|---|---|---|
| 2026-05-05 10:10 | 40.45637 | -3.56881 | 1975 ft | 0 kts | 134° |
| 2026-05-05 10:29 | 40.45646 | -3.56894 | 1981 ft | 4 kts | 134° |
| 2026-05-05 10:29 | 40.45664 | -3.56918 | 1979 ft | 2 kts | 135° |
| 2026-05-05 10:29 | 40.45678 | -3.56940 | 1981 ft | 4 kts | 102° |
| 2026-05-05 10:30 | 40.45675 | -3.56970 | 1981 ft | 4 kts | 51° |
| 2026-05-05 10:30 | 40.45657 | -3.56994 | 1981 ft | 4 kts | 45° |
| 2026-05-05 10:30 | 40.45650 | -3.57003 | 1980 ft | 1 kts | 45° |
| 2026-05-05 10:33 | 40.45652 | -3.57001 | 1980 ft | 1 kts | 45° |
| 2026-05-05 10:33 | 40.45685 | -3.56958 | 1979 ft | 12 kts | 45° |
| 2026-05-05 10:33 | 40.45768 | -3.56850 | 1980 ft | 21 kts | 44° |
| 2026-05-05 10:33 | 40.45808 | -3.56677 | 1979 ft | 21 kts | 90° |
| 2026-05-05 10:34 | 40.45874 | -3.56537 | 1980 ft | 20 kts | 12° |
| 2026-05-05 10:34 | 40.46020 | -3.56524 | 1977 ft | 22 kts | 4° |
| 2026-05-05 10:34 | 40.46179 | -3.56512 | 1977 ft | 24 kts | 3° |
| 2026-05-05 10:34 | 40.46346 | -3.56500 | 1976 ft | 25 kts | 3° |
| 2026-05-05 10:35 | 40.46520 | -3.56487 | 1977 ft | 25 kts | 4° |
| 2026-05-05 10:35 | 40.46698 | -3.56472 | 1982 ft | 26 kts | 4° |
| 2026-05-05 10:35 | 40.46882 | -3.56458 | 1979 ft | 27 kts | 3° |
| 2026-05-05 10:35 | 40.47067 | -3.56467 | 1983 ft | 26 kts | 346° |
| 2026-05-05 10:36 | 40.47221 | -3.56581 | 1989 ft | 25 kts | 322° |
| 2026-05-05 10:36 | 40.47355 | -3.56718 | 1992 ft | 24 kts | 322° |
| 2026-05-05 10:36 | 40.47486 | -3.56851 | 1997 ft | 24 kts | 322° |
| 2026-05-05 10:36 | 40.47616 | -3.56984 | 1999 ft | 23 kts | 322° |
| 2026-05-05 10:37 | 40.47746 | -3.57117 | 2001 ft | 24 kts | 322° |
| 2026-05-05 10:37 | 40.47875 | -3.57249 | 2003 ft | 23 kts | 322° |
| 2026-05-05 10:37 | 40.48005 | -3.57381 | 2004 ft | 25 kts | 322° |
| 2026-05-05 10:37 | 40.48149 | -3.57526 | 2001 ft | 27 kts | 322° |
| 2026-05-05 10:38 | 40.48308 | -3.57687 | 1998 ft | 30 kts | 323° |
| 2026-05-05 10:38 | 40.48490 | -3.57844 | 1997 ft | 32 kts | 335° |
| 2026-05-05 10:38 | 40.48658 | -3.57916 | 2001 ft | 24 kts | 355° |
| 2026-05-05 10:38 | 40.48828 | -3.57928 | 1999 ft | 25 kts | 0° |
| 2026-05-05 10:39 | 40.49008 | -3.57929 | 2002 ft | 27 kts | 360° |
| 2026-05-05 10:39 | 40.49173 | -3.57930 | 2001 ft | 19 kts | 359° |
| 2026-05-05 10:39 | 40.49247 | -3.57835 | 1999 ft | 18 kts | 84° |
| 2026-05-05 10:39 | 40.49246 | -3.57675 | 1993 ft | 10 kts | 89° |
| 2026-05-05 10:40 | 40.49246 | -3.57656 | 1992 ft | 0 kts | 89° |
| 2026-05-05 10:40 | 40.49249 | -3.57636 | 1992 ft | 5 kts | 80° |
| 2026-05-05 10:40 | 40.49267 | -3.57571 | 1992 ft | 10 kts | 61° |
| 2026-05-05 10:40 | 40.49323 | -3.57488 | 1988 ft | 14 kts | 39° |
| 2026-05-05 10:41 | 40.49401 | -3.57452 | 1987 ft | 10 kts | 3° |
| 2026-05-05 10:41 | 40.49483 | -3.57453 | 1987 ft | 15 kts | 359° |
| 2026-05-05 10:41 | 40.49722 | -3.57458 | 1991 ft | 67 kts | 359° |
| 2026-05-05 10:41 | 40.50443 | -3.57459 | 1996 ft | 139 kts | 359° |
| 2026-05-05 10:42 | 40.52933 | -3.57426 | 3209 ft | 190 kts | 359° |
| 2026-05-05 10:42 | 40.54270 | -3.57441 | 4292 ft | 200 kts | 358° |
| 2026-05-05 10:42 | 40.55713 | -3.57218 | 5100 ft | 219 kts | 9° |
| 2026-05-05 10:43 | 40.57246 | -3.56707 | 5909 ft | 235 kts | 13° |
| 2026-05-05 10:43 | 40.58846 | -3.56102 | 6938 ft | 242 kts | 14° |
| 2026-05-05 10:43 | 40.60475 | -3.55479 | 8085 ft | 244 kts | 14° |
| 2026-05-05 10:43 | 40.62121 | -3.54851 | 9196 ft | 248 kts | 14° |
| 2026-05-05 10:44 | 40.63808 | -3.54313 | 10214 ft | 251 kts | 6° |
| 2026-05-05 10:44 | 40.65557 | -3.54068 | 11148 ft | 255 kts | 1° |
| 2026-05-05 10:44 | 40.67343 | -3.53907 | 12100 ft | 259 kts | 0° |
| 2026-05-05 10:44 | 40.69151 | -3.53601 | 13046 ft | 267 kts | 11° |
| 2026-05-05 10:45 | 40.70840 | -3.52465 | 13874 ft | 285 kts | 37° |
| 2026-05-05 10:45 | 40.72213 | -3.50406 | 14223 ft | 314 kts | 52° |
| 2026-05-05 10:45 | 40.73489 | -3.47934 | 14535 ft | 340 kts | 54° |
| 2026-05-05 10:45 | 40.74838 | -3.45237 | 14875 ft | 363 kts | 54° |
| 2026-05-05 10:46 | 40.76264 | -3.42416 | 15466 ft | 375 kts | 54° |
| 2026-05-05 10:46 | 40.77736 | -3.39531 | 16222 ft | 383 kts | 54° |
| 2026-05-05 10:46 | 40.79242 | -3.36599 | 17021 ft | 389 kts | 54° |
| 2026-05-05 10:46 | 40.80773 | -3.33628 | 17812 ft | 395 kts | 54° |
| 2026-05-05 10:47 | 40.82313 | -3.30645 | 18556 ft | 401 kts | 53° |
| 2026-05-05 10:47 | 40.84052 | -3.27730 | 19147 ft | 407 kts | 43° |
| 2026-05-05 10:47 | 40.86261 | -3.25404 | 19738 ft | 408 kts | 26° |
| 2026-05-05 10:47 | 40.88857 | -3.23959 | 20451 ft | 404 kts | 11° |
| 2026-05-05 10:48 | 40.91582 | -3.23051 | 21164 ft | 405 kts | 6° |
| 2026-05-05 10:48 | 40.94366 | -3.22368 | 21802 ft | 409 kts | 3° |
| 2026-05-05 10:48 | 40.97189 | -3.21792 | 22445 ft | 413 kts | 1° |
| 2026-05-05 10:48 | 41.00060 | -3.21237 | 23057 ft | 419 kts | 1° |
| 2026-05-05 10:49 | 41.02959 | -3.20667 | 23654 ft | 424 kts | 1° |
| 2026-05-05 10:49 | 41.05895 | -3.20063 | 24177 ft | 429 kts | 1° |
| 2026-05-05 10:49 | 41.08860 | -3.19427 | 24745 ft | 434 kts | 2° |
| 2026-05-05 10:49 | 41.11838 | -3.18765 | 25386 ft | 433 kts | 3° |
| 2026-05-05 10:50 | 41.14818 | -3.18091 | 25950 ft | 436 kts | 3° |
| 2026-05-05 10:50 | 41.17826 | -3.17410 | 26418 ft | 441 kts | 3° |
| 2026-05-05 10:50 | 41.20869 | -3.16721 | 26890 ft | 446 kts | 3° |
| 2026-05-05 10:50 | 41.23936 | -3.16028 | 27366 ft | 450 kts | 3° |
| 2026-05-05 10:51 | 41.27045 | -3.15326 | 27827 ft | 455 kts | 3° |
| 2026-05-05 10:51 | 41.30179 | -3.14617 | 28302 ft | 459 kts | 2° |
| 2026-05-05 10:51 | 41.33334 | -3.13902 | 28870 ft | 461 kts | 3° |
| 2026-05-05 10:51 | 41.36505 | -3.13182 | 29398 ft | 464 kts | 3° |
| 2026-05-05 10:52 | 41.39702 | -3.12457 | 29836 ft | 469 kts | 3° |
| 2026-05-05 10:52 | 41.42932 | -3.11724 | 30242 ft | 473 kts | 3° |
| 2026-05-05 10:52 | 41.46192 | -3.10983 | 30613 ft | 477 kts | 3° |
| 2026-05-05 10:52 | 41.49429 | -3.10246 | 31022 ft | 480 kts | 3° |
| 2026-05-05 10:53 | 41.52730 | -3.09495 | 31473 ft | 482 kts | 4° |
| 2026-05-05 10:53 | 41.56040 | -3.08742 | 32009 ft | 482 kts | 4° |
| 2026-05-05 10:53 | 41.59330 | -3.07991 | 32644 ft | 479 kts | 4° |
| 2026-05-05 10:53 | 41.62609 | -3.07242 | 33180 ft | 478 kts | 4° |
| 2026-05-05 10:54 | 41.65891 | -3.06495 | 33680 ft | 478 kts | 4° |
| 2026-05-05 10:54 | 41.69169 | -3.05749 | 34166 ft | 477 kts | 4° |
| 2026-05-05 10:54 | 41.72442 | -3.05003 | 34555 ft | 477 kts | 4° |
| 2026-05-05 10:54 | 41.75729 | -3.04254 | 34854 ft | 481 kts | 4° |
| 2026-05-05 10:55 | 41.79024 | -3.03498 | 35266 ft | 480 kts | 4° |
| 2026-05-05 10:55 | 41.82312 | -3.02740 | 35722 ft | 479 kts | 5° |
| 2026-05-05 10:55 | 41.85589 | -3.01982 | 36155 ft | 478 kts | 5° |
| 2026-05-05 10:55 | 41.88869 | -3.01224 | 36554 ft | 478 kts | 5° |
| 2026-05-05 10:56 | 41.92143 | -3.00467 | 36940 ft | 478 kts | 5° |
| 2026-05-05 10:56 | 41.95420 | -2.99709 | 37354 ft | 477 kts | 5° |
| 2026-05-05 10:56 | 41.98686 | -2.98952 | 37833 ft | 475 kts | 6° |
| 2026-05-05 10:56 | 42.01935 | -2.98199 | 38278 ft | 474 kts | 6° |
| 2026-05-05 10:57 | 42.05184 | -2.97446 | 38660 ft | 473 kts | 6° |
| 2026-05-05 10:57 | 42.08427 | -2.96693 | 38957 ft | 473 kts | 6° |
| 2026-05-05 10:57 | 42.11673 | -2.95939 | 39258 ft | 473 kts | 6° |
| 2026-05-05 10:57 | 42.14913 | -2.95186 | 39540 ft | 473 kts | 6° |
| 2026-05-05 10:58 | 42.18157 | -2.94431 | 39844 ft | 473 kts | 6° |
| 2026-05-05 10:58 | 42.21401 | -2.93675 | 39976 ft | 473 kts | 6° |
| 2026-05-05 10:58 | 42.24634 | -2.92920 | 39992 ft | 471 kts | 6° |
| 2026-05-05 10:59 | 42.31075 | -2.91416 | 39995 ft | 470 kts | 6° |
| 2026-05-05 10:59 | 42.37516 | -2.89908 | 40010 ft | 470 kts | 6° |
| 2026-05-05 11:00 | 42.43865 | -2.87767 | 39995 ft | 474 kts | 20° |
| 2026-05-05 11:00 | 42.49485 | -2.83070 | 39998 ft | 479 kts | 37° |
| 2026-05-05 11:01 | 42.54568 | -2.77188 | 39997 ft | 481 kts | 40° |
| 2026-05-05 11:01 | 42.59499 | -2.71136 | 40014 ft | 481 kts | 40° |
| 2026-05-05 11:02 | 42.64458 | -2.65049 | 40006 ft | 480 kts | 40° |
| 2026-05-05 11:02 | 42.69437 | -2.58986 | 40015 ft | 481 kts | 40° |
| 2026-05-05 11:03 | 42.74431 | -2.52919 | 40008 ft | 482 kts | 40° |
| 2026-05-05 11:03 | 42.79426 | -2.46843 | 40017 ft | 482 kts | 40° |
| 2026-05-05 11:04 | 42.84416 | -2.40756 | 40017 ft | 482 kts | 40° |
| 2026-05-05 11:04 | 42.89403 | -2.34657 | 40006 ft | 481 kts | 40° |
| 2026-05-05 11:05 | 42.94384 | -2.28551 | 40005 ft | 481 kts | 40° |
| 2026-05-05 11:05 | 42.99367 | -2.22429 | 40013 ft | 483 kts | 40° |
| 2026-05-05 11:06 | 43.04352 | -2.16282 | 40022 ft | 481 kts | 40° |
| 2026-05-05 11:06 | 43.09310 | -2.10151 | 40009 ft | 480 kts | 41° |
| 2026-05-05 11:07 | 43.14259 | -2.04023 | 40021 ft | 480 kts | 41° |
| 2026-05-05 11:07 | 43.18368 | -1.98928 | 40008 ft | 479 kts | 41° |
| 2026-05-05 11:08 | 43.23310 | -1.92788 | 40015 ft | 479 kts | 41° |
| 2026-05-05 11:08 | 43.28246 | -1.86641 | 40023 ft | 480 kts | 41° |
| 2026-05-05 11:09 | 43.33584 | -1.81210 | 40020 ft | 478 kts | 30° |
| 2026-05-05 11:09 | 43.39271 | -1.76464 | 40021 ft | 479 kts | 30° |
| 2026-05-05 11:10 | 43.44868 | -1.71491 | 40016 ft | 478 kts | 32° |
| 2026-05-05 11:10 | 43.50405 | -1.66441 | 40044 ft | 477 kts | 32° |
| 2026-05-05 11:11 | 43.55897 | -1.61434 | 40044 ft | 476 kts | 32° |
| 2026-05-05 11:11 | 43.61462 | -1.56372 | 40009 ft | 476 kts | 32° |
| 2026-05-05 11:12 | 43.66959 | -1.51373 | 40001 ft | 476 kts | 32° |
| 2026-05-05 11:12 | 43.72490 | -1.46332 | 40007 ft | 476 kts | 32° |
| 2026-05-05 11:13 | 43.78023 | -1.41278 | 40007 ft | 477 kts | 32° |
| 2026-05-05 11:13 | 43.83554 | -1.36213 | 40014 ft | 477 kts | 32° |
| 2026-05-05 11:14 | 43.89082 | -1.31139 | 40004 ft | 476 kts | 32° |
| 2026-05-05 11:14 | 43.94600 | -1.26062 | 39998 ft | 476 kts | 32° |
| 2026-05-05 11:15 | 44.00120 | -1.20972 | 39992 ft | 476 kts | 32° |
| 2026-05-05 11:15 | 44.05630 | -1.15881 | 39990 ft | 475 kts | 32° |
| 2026-05-05 11:16 | 44.11119 | -1.10797 | 39982 ft | 474 kts | 32° |
| 2026-05-05 11:16 | 44.16606 | -1.05703 | 39973 ft | 474 kts | 32° |
| 2026-05-05 11:17 | 44.22094 | -1.00598 | 39974 ft | 474 kts | 32° |
| 2026-05-05 11:17 | 44.27572 | -0.95489 | 39972 ft | 474 kts | 33° |
| 2026-05-05 11:18 | 44.33044 | -0.90374 | 39969 ft | 473 kts | 33° |
| 2026-05-05 11:18 | 44.38527 | -0.85280 | 39966 ft | 473 kts | 29° |
| 2026-05-05 11:19 | 44.44408 | -0.81207 | 39973 ft | 472 kts | 23° |
| 2026-05-05 11:19 | 44.50417 | -0.77487 | 39963 ft | 472 kts | 22° |
| 2026-05-05 11:20 | 44.56452 | -0.73835 | 39962 ft | 473 kts | 22° |
| 2026-05-05 11:20 | 44.62454 | -0.70186 | 39966 ft | 473 kts | 22° |
| 2026-05-05 11:21 | 44.68530 | -0.66465 | 39963 ft | 473 kts | 22° |
| 2026-05-05 11:21 | 44.74524 | -0.62778 | 39964 ft | 473 kts | 22° |
| 2026-05-05 11:22 | 44.80552 | -0.59059 | 39961 ft | 473 kts | 22° |
| 2026-05-05 11:22 | 44.86583 | -0.55333 | 39966 ft | 473 kts | 22° |
| 2026-05-05 11:23 | 44.92606 | -0.51604 | 39965 ft | 473 kts | 22° |
| 2026-05-05 11:23 | 44.98632 | -0.47863 | 39957 ft | 473 kts | 22° |
| 2026-05-05 11:24 | 45.04653 | -0.44117 | 39950 ft | 473 kts | 22° |
| 2026-05-05 11:24 | 45.10668 | -0.40365 | 39945 ft | 472 kts | 22° |
| 2026-05-05 11:25 | 45.16679 | -0.36608 | 39945 ft | 472 kts | 22° |
| 2026-05-05 11:25 | 45.22688 | -0.32843 | 39938 ft | 472 kts | 22° |
| 2026-05-05 11:26 | 45.28678 | -0.29081 | 39950 ft | 470 kts | 22° |
| 2026-05-05 11:26 | 45.34655 | -0.25318 | 39938 ft | 470 kts | 23° |
| 2026-05-05 11:27 | 45.40631 | -0.21548 | 39936 ft | 470 kts | 23° |
| 2026-05-05 11:27 | 45.46591 | -0.17780 | 39937 ft | 468 kts | 23° |
| 2026-05-05 11:28 | 45.52548 | -0.14004 | 39934 ft | 468 kts | 23° |
| 2026-05-05 11:28 | 45.58493 | -0.10227 | 39940 ft | 468 kts | 23° |
| 2026-05-05 11:29 | 45.64439 | -0.06440 | 39934 ft | 468 kts | 23° |
| 2026-05-05 11:29 | 45.70390 | -0.02642 | 39922 ft | 468 kts | 23° |
| 2026-05-05 11:30 | 45.76343 | 0.01167 | 39907 ft | 469 kts | 23° |
| 2026-05-05 11:30 | 45.82305 | 0.04990 | 39911 ft | 470 kts | 24° |
| 2026-05-05 11:31 | 45.88276 | 0.08828 | 39911 ft | 470 kts | 24° |
| 2026-05-05 11:31 | 45.94247 | 0.12675 | 39907 ft | 470 kts | 24° |
| 2026-05-05 11:32 | 46.00221 | 0.16533 | 39906 ft | 470 kts | 24° |
| 2026-05-05 11:32 | 46.06183 | 0.20392 | 39896 ft | 470 kts | 24° |
| 2026-05-05 11:33 | 46.12145 | 0.24260 | 39897 ft | 470 kts | 24° |
| 2026-05-05 11:33 | 46.18104 | 0.28136 | 39895 ft | 470 kts | 24° |
| 2026-05-05 11:34 | 46.24062 | 0.32021 | 39889 ft | 470 kts | 24° |
| 2026-05-05 11:34 | 46.30010 | 0.35908 | 39884 ft | 469 kts | 24° |
| 2026-05-05 11:35 | 46.35964 | 0.39809 | 39878 ft | 469 kts | 24° |
| 2026-05-05 11:35 | 46.41874 | 0.43689 | 39881 ft | 469 kts | 24° |
| 2026-05-05 11:36 | 46.47820 | 0.47603 | 39880 ft | 469 kts | 24° |
| 2026-05-05 11:36 | 46.53761 | 0.51518 | 39880 ft | 469 kts | 22° |
| 2026-05-05 11:37 | 46.59968 | 0.54318 | 39882 ft | 467 kts | 13° |
| 2026-05-05 11:37 | 46.66307 | 0.56502 | 39878 ft | 469 kts | 12° |
| 2026-05-05 11:38 | 46.72679 | 0.58572 | 39874 ft | 469 kts | 12° |
| 2026-05-05 11:38 | 46.79041 | 0.60643 | 39872 ft | 469 kts | 12° |
| 2026-05-05 11:39 | 46.85402 | 0.62739 | 39865 ft | 469 kts | 12° |
| 2026-05-05 11:39 | 46.91763 | 0.64851 | 39864 ft | 468 kts | 12° |
| 2026-05-05 11:40 | 46.98122 | 0.66969 | 39873 ft | 469 kts | 12° |
| 2026-05-05 11:40 | 47.04492 | 0.68934 | 39863 ft | 467 kts | 6° |
| 2026-05-05 11:41 | 47.10954 | 0.69845 | 39855 ft | 466 kts | 4° |
| 2026-05-05 11:41 | 47.17431 | 0.70538 | 39856 ft | 467 kts | 3° |
| 2026-05-05 11:42 | 47.23904 | 0.71186 | 39856 ft | 465 kts | 3° |
| 2026-05-05 11:42 | 47.30357 | 0.71845 | 39857 ft | 465 kts | 3° |
| 2026-05-05 11:43 | 47.36809 | 0.72517 | 39856 ft | 465 kts | 3° |
| 2026-05-05 11:43 | 47.43255 | 0.73196 | 39856 ft | 464 kts | 3° |
| 2026-05-05 11:44 | 47.49664 | 0.74249 | 39861 ft | 464 kts | 13° |
| 2026-05-05 11:44 | 47.55868 | 0.76899 | 39854 ft | 464 kts | 17° |
| 2026-05-05 11:45 | 47.62009 | 0.79895 | 39852 ft | 465 kts | 18° |
| 2026-05-05 11:45 | 47.68132 | 0.82963 | 39848 ft | 464 kts | 18° |
| 2026-05-05 11:46 | 47.74210 | 0.85996 | 39835 ft | 464 kts | 18° |
| 2026-05-05 11:46 | 47.80350 | 0.89046 | 39833 ft | 465 kts | 18° |
| 2026-05-05 11:47 | 47.86483 | 0.92102 | 39829 ft | 464 kts | 18° |
| 2026-05-05 11:47 | 47.92592 | 0.95185 | 39829 ft | 463 kts | 18° |
| 2026-05-05 11:48 | 48.01746 | 0.99830 | 39834 ft | 463 kts | 19° |
| 2026-05-05 11:48 | 48.07847 | 1.02932 | 39828 ft | 463 kts | 19° |
| 2026-05-05 11:49 | 48.13945 | 1.06039 | 39827 ft | 463 kts | 19° |
| 2026-05-05 11:49 | 48.20045 | 1.09154 | 39829 ft | 463 kts | 19° |
| 2026-05-05 11:50 | 48.26103 | 1.12245 | 39831 ft | 463 kts | 19° |
| 2026-05-05 11:50 | 48.32205 | 1.15356 | 39839 ft | 463 kts | 19° |
| 2026-05-05 11:51 | 48.38304 | 1.18473 | 39839 ft | 463 kts | 19° |
| 2026-05-05 11:51 | 48.44409 | 1.21602 | 39838 ft | 463 kts | 19° |
| 2026-05-05 11:52 | 48.50513 | 1.24739 | 39838 ft | 463 kts | 19° |
| 2026-05-05 11:52 | 48.56616 | 1.27873 | 39842 ft | 463 kts | 19° |
| 2026-05-05 11:53 | 48.62735 | 1.30962 | 39835 ft | 463 kts | 19° |
| 2026-05-05 11:53 | 48.68850 | 1.34037 | 39855 ft | 463 kts | 19° |
| 2026-05-05 11:54 | 48.74960 | 1.37121 | 39864 ft | 463 kts | 19° |
| 2026-05-05 11:54 | 48.81066 | 1.40216 | 39865 ft | 463 kts | 19° |
| 2026-05-05 11:55 | 48.86147 | 1.42799 | 39873 ft | 463 kts | 19° |
| 2026-05-05 11:55 | 48.92247 | 1.45910 | 39876 ft | 463 kts | 19° |
| 2026-05-05 11:56 | 48.97937 | 1.50361 | 39875 ft | 460 kts | 38° |
| 2026-05-05 11:56 | 49.02557 | 1.57044 | 39873 ft | 459 kts | 48° |
| 2026-05-05 11:57 | 49.06825 | 1.64285 | 39874 ft | 459 kts | 50° |
| 2026-05-05 11:57 | 49.11025 | 1.71624 | 39865 ft | 460 kts | 50° |
| 2026-05-05 11:58 | 49.15244 | 1.78964 | 39853 ft | 460 kts | 50° |
| 2026-05-05 11:58 | 49.19484 | 1.86302 | 39859 ft | 461 kts | 50° |
| 2026-05-05 11:59 | 49.23730 | 1.93653 | 39869 ft | 461 kts | 50° |
| 2026-05-05 11:59 | 49.27971 | 2.01014 | 39875 ft | 461 kts | 50° |
| 2026-05-05 12:00 | 49.32207 | 2.08391 | 39881 ft | 461 kts | 50° |
| 2026-05-05 12:00 | 49.36442 | 2.15788 | 39883 ft | 462 kts | 50° |
| 2026-05-05 12:01 | 49.40675 | 2.23203 | 39876 ft | 462 kts | 50° |
| 2026-05-05 12:01 | 49.44902 | 2.30629 | 39877 ft | 462 kts | 50° |
| 2026-05-05 12:02 | 49.49127 | 2.38074 | 39881 ft | 462 kts | 50° |
| 2026-05-05 12:02 | 49.53360 | 2.45523 | 39877 ft | 463 kts | 48° |
| 2026-05-05 12:03 | 49.58307 | 2.51789 | 39870 ft | 466 kts | 35° |
| 2026-05-05 12:03 | 49.63749 | 2.57254 | 39879 ft | 467 kts | 33° |
| 2026-05-05 12:04 | 49.69268 | 2.62553 | 39877 ft | 467 kts | 32° |
| 2026-05-05 12:04 | 49.74785 | 2.67856 | 39876 ft | 467 kts | 32° |
| 2026-05-05 12:05 | 49.80287 | 2.73197 | 39884 ft | 467 kts | 32° |
| 2026-05-05 12:05 | 49.85788 | 2.78570 | 39890 ft | 468 kts | 33° |
| 2026-05-05 12:06 | 49.91293 | 2.83966 | 39888 ft | 468 kts | 33° |
| 2026-05-05 12:06 | 49.96790 | 2.89369 | 39888 ft | 468 kts | 32° |
| 2026-05-05 12:07 | 50.02289 | 2.94786 | 39883 ft | 467 kts | 32° |
| 2026-05-05 12:07 | 50.07775 | 3.00206 | 39892 ft | 467 kts | 33° |
| 2026-05-05 12:08 | 50.13261 | 3.05640 | 39895 ft | 467 kts | 33° |
| 2026-05-05 12:08 | 50.18747 | 3.11089 | 39893 ft | 467 kts | 32° |
| 2026-05-05 12:09 | 50.24385 | 3.16127 | 39889 ft | 467 kts | 25° |
| 2026-05-05 12:09 | 50.30276 | 3.20419 | 39894 ft | 467 kts | 24° |
| 2026-05-05 12:10 | 50.36212 | 3.24578 | 39903 ft | 467 kts | 24° |
| 2026-05-05 12:10 | 50.42136 | 3.28785 | 39906 ft | 468 kts | 25° |
| 2026-05-05 12:11 | 50.47971 | 3.33295 | 39907 ft | 468 kts | 26° |
| 2026-05-05 12:11 | 50.53810 | 3.37817 | 39907 ft | 468 kts | 25° |
| 2026-05-05 12:12 | 50.59740 | 3.42012 | 39904 ft | 468 kts | 23° |
| 2026-05-05 12:12 | 50.65694 | 3.46123 | 39903 ft | 467 kts | 23° |
| 2026-05-05 12:13 | 50.71637 | 3.50258 | 39900 ft | 467 kts | 23° |
| 2026-05-05 12:13 | 50.77570 | 3.54425 | 39905 ft | 466 kts | 23° |
| 2026-05-05 12:14 | 50.83497 | 3.58611 | 39906 ft | 466 kts | 23° |
| 2026-05-05 12:14 | 50.89409 | 3.62799 | 39910 ft | 465 kts | 23° |
| 2026-05-05 12:15 | 50.95275 | 3.66964 | 39908 ft | 465 kts | 23° |
| 2026-05-05 12:15 | 51.01180 | 3.71168 | 39905 ft | 465 kts | 23° |
| 2026-05-05 12:16 | 51.07077 | 3.75378 | 39908 ft | 465 kts | 23° |
| 2026-05-05 12:16 | 51.12977 | 3.79602 | 39910 ft | 465 kts | 23° |
| 2026-05-05 12:17 | 51.18880 | 3.83840 | 39911 ft | 466 kts | 23° |
| 2026-05-05 12:17 | 51.24793 | 3.88097 | 39912 ft | 466 kts | 23° |
| 2026-05-05 12:18 | 51.30705 | 3.92365 | 39916 ft | 466 kts | 23° |
| 2026-05-05 12:18 | 51.36603 | 3.96636 | 39911 ft | 465 kts | 23° |
| 2026-05-05 12:19 | 51.42489 | 4.00910 | 39910 ft | 465 kts | 23° |
| 2026-05-05 12:19 | 51.48235 | 4.05641 | 39914 ft | 465 kts | 34° |
| 2026-05-05 12:20 | 51.53339 | 4.12024 | 39911 ft | 465 kts | 39° |
| 2026-05-05 12:20 | 51.58272 | 4.18750 | 39912 ft | 465 kts | 40° |
| 2026-05-05 12:21 | 51.63169 | 4.25555 | 39914 ft | 465 kts | 40° |
| 2026-05-05 12:21 | 51.68071 | 4.32357 | 39915 ft | 465 kts | 40° |
| 2026-05-05 12:22 | 51.72943 | 4.39106 | 39918 ft | 465 kts | 40° |
| 2026-05-05 12:22 | 51.77851 | 4.45912 | 39914 ft | 465 kts | 40° |
| 2026-05-05 12:23 | 51.82756 | 4.52734 | 39913 ft | 465 kts | 40° |
| 2026-05-05 12:23 | 51.87660 | 4.59577 | 39912 ft | 465 kts | 40° |
| 2026-05-05 12:24 | 51.92555 | 4.66429 | 39914 ft | 465 kts | 40° |
| 2026-05-05 12:24 | 51.97448 | 4.73298 | 39931 ft | 465 kts | 40° |
| 2026-05-05 12:25 | 52.02336 | 4.80182 | 39928 ft | 465 kts | 40° |
| 2026-05-05 12:25 | 52.07226 | 4.87089 | 39932 ft | 465 kts | 40° |
| 2026-05-05 12:26 | 52.12104 | 4.94000 | 39934 ft | 466 kts | 40° |
| 2026-05-05 12:26 | 52.16989 | 5.00942 | 39936 ft | 467 kts | 40° |
| 2026-05-05 12:27 | 52.21875 | 5.07906 | 39937 ft | 466 kts | 40° |
| 2026-05-05 12:27 | 52.26746 | 5.14869 | 39936 ft | 465 kts | 40° |
| 2026-05-05 12:28 | 52.31608 | 5.21842 | 39938 ft | 465 kts | 40° |
| 2026-05-05 12:28 | 52.36465 | 5.28828 | 39939 ft | 465 kts | 40° |
| 2026-05-05 12:29 | 52.41319 | 5.35830 | 39947 ft | 465 kts | 40° |
| 2026-05-05 12:29 | 52.46170 | 5.42850 | 39938 ft | 465 kts | 41° |
| 2026-05-05 12:30 | 52.51018 | 5.49887 | 39935 ft | 465 kts | 41° |
| 2026-05-05 12:30 | 52.55866 | 5.56946 | 39939 ft | 466 kts | 41° |
| 2026-05-05 12:31 | 52.60711 | 5.64022 | 39938 ft | 466 kts | 41° |
| 2026-05-05 12:31 | 52.65556 | 5.71119 | 39941 ft | 466 kts | 41° |
| 2026-05-05 12:32 | 52.70406 | 5.78246 | 39938 ft | 468 kts | 41° |
| 2026-05-05 12:32 | 52.75261 | 5.85404 | 39941 ft | 468 kts | 41° |
| 2026-05-05 12:33 | 52.80115 | 5.92580 | 39941 ft | 468 kts | 41° |
| 2026-05-05 12:33 | 52.84963 | 5.99772 | 39944 ft | 468 kts | 41° |
| 2026-05-05 12:34 | 52.89801 | 6.06971 | 39947 ft | 468 kts | 41° |
| 2026-05-05 12:34 | 52.94646 | 6.14203 | 39950 ft | 469 kts | 41° |
| 2026-05-05 12:35 | 52.99495 | 6.21462 | 39952 ft | 470 kts | 41° |
| 2026-05-05 12:35 | 53.04345 | 6.28747 | 39952 ft | 470 kts | 41° |
| 2026-05-05 12:36 | 53.09186 | 6.36041 | 39963 ft | 470 kts | 41° |
| 2026-05-05 12:36 | 53.14020 | 6.43349 | 39955 ft | 469 kts | 41° |
| 2026-05-05 12:37 | 53.18845 | 6.50666 | 39960 ft | 469 kts | 41° |
| 2026-05-05 12:37 | 53.23665 | 6.57998 | 39965 ft | 469 kts | 41° |
| 2026-05-05 12:38 | 53.28483 | 6.65350 | 39965 ft | 469 kts | 41° |
| 2026-05-05 12:38 | 53.33264 | 6.72669 | 39964 ft | 469 kts | 41° |
| 2026-05-05 12:39 | 53.38075 | 6.80059 | 39966 ft | 470 kts | 41° |
| 2026-05-05 12:39 | 53.42887 | 6.87473 | 39966 ft | 470 kts | 41° |
| 2026-05-05 12:40 | 53.47695 | 6.94906 | 39966 ft | 470 kts | 41° |
| 2026-05-05 12:40 | 53.51721 | 7.01148 | 39966 ft | 470 kts | 41° |
| 2026-05-05 12:41 | 53.56518 | 7.08607 | 39971 ft | 470 kts | 41° |
| 2026-05-05 12:41 | 53.61307 | 7.16079 | 39968 ft | 470 kts | 41° |
| 2026-05-05 12:42 | 53.66093 | 7.23569 | 39968 ft | 470 kts | 41° |
| 2026-05-05 12:42 | 53.70874 | 7.31076 | 39957 ft | 470 kts | 41° |
| 2026-05-05 12:43 | 53.75658 | 7.38613 | 39969 ft | 471 kts | 42° |
| 2026-05-05 12:43 | 53.80413 | 7.46129 | 39969 ft | 471 kts | 41° |
| 2026-05-05 12:44 | 53.85202 | 7.53723 | 39963 ft | 472 kts | 42° |
| 2026-05-05 12:44 | 53.89987 | 7.61334 | 39965 ft | 472 kts | 42° |
| 2026-05-05 12:45 | 53.94771 | 7.68970 | 39966 ft | 472 kts | 42° |
| 2026-05-05 12:45 | 53.99546 | 7.76617 | 39974 ft | 472 kts | 42° |
| 2026-05-05 12:46 | 54.04321 | 7.84290 | 39966 ft | 472 kts | 42° |
| 2026-05-05 12:46 | 54.09096 | 7.91987 | 39966 ft | 473 kts | 42° |
| 2026-05-05 12:47 | 54.13868 | 7.99706 | 39965 ft | 473 kts | 42° |
| 2026-05-05 12:47 | 54.18638 | 8.07448 | 39963 ft | 473 kts | 42° |
| 2026-05-05 12:48 | 54.23404 | 8.15208 | 39973 ft | 473 kts | 42° |
| 2026-05-05 12:48 | 54.28164 | 8.22986 | 39963 ft | 474 kts | 42° |
| 2026-05-05 12:49 | 54.32924 | 8.30790 | 39961 ft | 474 kts | 42° |
| 2026-05-05 12:49 | 54.37680 | 8.38612 | 39957 ft | 474 kts | 42° |
| 2026-05-05 12:50 | 54.42431 | 8.46454 | 39955 ft | 474 kts | 42° |
| 2026-05-05 12:50 | 54.47141 | 8.54254 | 39962 ft | 474 kts | 42° |
| 2026-05-05 12:51 | 54.51884 | 8.62134 | 39946 ft | 474 kts | 42° |
| 2026-05-05 12:51 | 54.56619 | 8.70029 | 39952 ft | 474 kts | 42° |
| 2026-05-05 12:52 | 54.61358 | 8.77958 | 39952 ft | 475 kts | 42° |
| 2026-05-05 12:52 | 54.66091 | 8.85904 | 39957 ft | 475 kts | 42° |
| 2026-05-05 12:53 | 54.70822 | 8.93873 | 39942 ft | 474 kts | 42° |
| 2026-05-05 12:53 | 54.75543 | 9.01853 | 39951 ft | 474 kts | 42° |
| 2026-05-05 12:54 | 54.82612 | 9.13853 | 39960 ft | 474 kts | 42° |
| 2026-05-05 12:55 | 54.87257 | 9.21952 | 39668 ft | 470 kts | 45° |
| 2026-05-05 12:55 | 54.89430 | 9.26115 | 39545 ft | 461 kts | 46° |
| 2026-05-05 12:55 | 54.91530 | 9.30283 | 39339 ft | 456 kts | 47° |
| 2026-05-05 12:55 | 54.93602 | 9.34449 | 38904 ft | 456 kts | 47° |
| 2026-05-05 12:56 | 54.95675 | 9.38622 | 38441 ft | 457 kts | 47° |
| 2026-05-05 12:56 | 54.97762 | 9.42810 | 37956 ft | 456 kts | 47° |
| 2026-05-05 12:56 | 54.99837 | 9.46959 | 37549 ft | 453 kts | 47° |
| 2026-05-05 12:56 | 55.01903 | 9.51080 | 37124 ft | 450 kts | 47° |
| 2026-05-05 12:57 | 55.03961 | 9.55179 | 36720 ft | 448 kts | 47° |
| 2026-05-05 12:57 | 55.06007 | 9.59257 | 36301 ft | 446 kts | 47° |
| 2026-05-05 12:57 | 55.08046 | 9.63324 | 35899 ft | 444 kts | 47° |
| 2026-05-05 12:57 | 55.09912 | 9.67615 | 35480 ft | 444 kts | 58° |
| 2026-05-05 12:58 | 55.11263 | 9.72457 | 34962 ft | 445 kts | 69° |
| 2026-05-05 12:58 | 55.12291 | 9.77578 | 34320 ft | 448 kts | 71° |
| 2026-05-05 12:58 | 55.13244 | 9.82774 | 33546 ft | 453 kts | 72° |
| 2026-05-05 12:58 | 55.14194 | 9.88077 | 32701 ft | 459 kts | 72° |
| 2026-05-05 12:59 | 55.15145 | 9.93422 | 31888 ft | 462 kts | 72° |
| 2026-05-05 12:59 | 55.16103 | 9.98820 | 31072 ft | 466 kts | 72° |
| 2026-05-05 12:59 | 55.17058 | 10.04216 | 30500 ft | 463 kts | 72° |
| 2026-05-05 13:00 | 55.18947 | 10.14934 | 29171 ft | 458 kts | 72° |
| 2026-05-05 13:00 | 55.19879 | 10.20244 | 28557 ft | 455 kts | 72° |
| 2026-05-05 13:01 | 55.22620 | 10.35944 | 26687 ft | 445 kts | 72° |
| 2026-05-05 13:01 | 55.23518 | 10.41119 | 26049 ft | 443 kts | 72° |
| 2026-05-05 13:01 | 55.24410 | 10.46275 | 25425 ft | 441 kts | 73° |
| 2026-05-05 13:01 | 55.25295 | 10.51406 | 24786 ft | 439 kts | 73° |
| 2026-05-05 13:02 | 55.26176 | 10.56524 | 24168 ft | 437 kts | 73° |
| 2026-05-05 13:02 | 55.27050 | 10.61620 | 23547 ft | 435 kts | 73° |
| 2026-05-05 13:02 | 55.27919 | 10.66686 | 22858 ft | 433 kts | 73° |
| 2026-05-05 13:02 | 55.28782 | 10.71708 | 22262 ft | 427 kts | 73° |
| 2026-05-05 13:03 | 55.29634 | 10.76673 | 21659 ft | 423 kts | 73° |
| 2026-05-05 13:03 | 55.30476 | 10.81595 | 21045 ft | 419 kts | 73° |
| 2026-05-05 13:03 | 55.31298 | 10.86411 | 20469 ft | 416 kts | 73° |
| 2026-05-05 13:03 | 55.32123 | 10.91264 | 19852 ft | 414 kts | 73° |
| 2026-05-05 13:04 | 55.32942 | 10.96093 | 19238 ft | 411 kts | 73° |
| 2026-05-05 13:04 | 55.33746 | 11.00892 | 18643 ft | 408 kts | 73° |
| 2026-05-05 13:04 | 55.34540 | 11.05662 | 18012 ft | 406 kts | 73° |
| 2026-05-05 13:04 | 55.35337 | 11.10463 | 17354 ft | 402 kts | 73° |
| 2026-05-05 13:05 | 55.36112 | 11.15149 | 16760 ft | 397 kts | 73° |
| 2026-05-05 13:05 | 55.36867 | 11.19720 | 16187 ft | 392 kts | 73° |
| 2026-05-05 13:05 | 55.37623 | 11.24308 | 15582 ft | 389 kts | 73° |
| 2026-05-05 13:05 | 55.38370 | 11.28857 | 14992 ft | 385 kts | 73° |
| 2026-05-05 13:06 | 55.39108 | 11.33360 | 14404 ft | 382 kts | 73° |
| 2026-05-05 13:06 | 55.39837 | 11.37822 | 13829 ft | 378 kts | 73° |
| 2026-05-05 13:06 | 55.40558 | 11.42241 | 13233 ft | 374 kts | 73° |
| 2026-05-05 13:06 | 55.41258 | 11.46546 | 13079 ft | 357 kts | 73° |
| 2026-05-05 13:07 | 55.41922 | 11.50640 | 12994 ft | 339 kts | 73° |
| 2026-05-05 13:07 | 55.42553 | 11.54545 | 12785 ft | 328 kts | 73° |
| 2026-05-05 13:07 | 55.43072 | 11.58471 | 12166 ft | 329 kts | 78° |
| 2026-05-05 13:07 | 55.43505 | 11.62392 | 11416 ft | 324 kts | 79° |
| 2026-05-05 13:08 | 55.43912 | 11.66273 | 10657 ft | 320 kts | 79° |
| 2026-05-05 13:08 | 55.44304 | 11.70104 | 9908 ft | 315 kts | 79° |
| 2026-05-05 13:08 | 55.44682 | 11.73873 | 9158 ft | 309 kts | 79° |
| 2026-05-05 13:08 | 55.45048 | 11.77565 | 8462 ft | 302 kts | 79° |
| 2026-05-05 13:09 | 55.45402 | 11.81168 | 8030 ft | 297 kts | 79° |
| 2026-05-05 13:09 | 55.45751 | 11.84729 | 7633 ft | 294 kts | 79° |
| 2026-05-05 13:09 | 55.46097 | 11.88265 | 7185 ft | 292 kts | 79° |
| 2026-05-05 13:09 | 55.46373 | 11.91761 | 6856 ft | 286 kts | 86° |
| 2026-05-05 13:10 | 55.46301 | 11.95237 | 6581 ft | 280 kts | 94° |
| 2026-05-05 13:10 | 55.46107 | 11.98573 | 6453 ft | 266 kts | 95° |
| 2026-05-05 13:10 | 55.45904 | 12.01734 | 6311 ft | 253 kts | 95° |
| 2026-05-05 13:10 | 55.45705 | 12.04753 | 6100 ft | 243 kts | 95° |
| 2026-05-05 13:11 | 55.45510 | 12.07694 | 5664 ft | 241 kts | 95° |
| 2026-05-05 13:11 | 55.45303 | 12.10617 | 5227 ft | 240 kts | 95° |
| 2026-05-05 13:11 | 55.45087 | 12.13507 | 4840 ft | 235 kts | 95° |
| 2026-05-05 13:11 | 55.44870 | 12.16337 | 4406 ft | 232 kts | 95° |
| 2026-05-05 13:12 | 55.44661 | 12.19147 | 3971 ft | 231 kts | 94° |
| 2026-05-05 13:12 | 55.44471 | 12.21950 | 3541 ft | 229 kts | 89° |
| 2026-05-05 13:12 | 55.44625 | 12.24704 | 3149 ft | 225 kts | 77° |
| 2026-05-05 13:12 | 55.44944 | 12.27399 | 3018 ft | 225 kts | 75° |
| 2026-05-05 13:13 | 55.45290 | 12.30094 | 3011 ft | 225 kts | 74° |
| 2026-05-05 13:13 | 55.45630 | 12.32785 | 3011 ft | 225 kts | 75° |
| 2026-05-05 13:13 | 55.45969 | 12.35483 | 2831 ft | 226 kts | 75° |
| 2026-05-05 13:13 | 55.46306 | 12.38182 | 2559 ft | 226 kts | 75° |
| 2026-05-05 13:14 | 55.46850 | 12.40750 | 2507 ft | 223 kts | 58° |
| 2026-05-05 13:14 | 55.47804 | 12.42865 | 2516 ft | 220 kts | 41° |
| 2026-05-05 13:14 | 55.48963 | 12.44604 | 2522 ft | 219 kts | 37° |
| 2026-05-05 13:14 | 55.50116 | 12.46318 | 2468 ft | 211 kts | 38° |
| 2026-05-05 13:15 | 55.51182 | 12.47966 | 2213 ft | 195 kts | 39° |
| 2026-05-05 13:15 | 55.52156 | 12.49474 | 1944 ft | 179 kts | 38° |
| 2026-05-05 13:15 | 55.53059 | 12.50861 | 1695 ft | 165 kts | 38° |
| 2026-05-05 13:15 | 55.53890 | 12.52140 | 1462 ft | 152 kts | 39° |
| 2026-05-05 13:16 | 55.54651 | 12.53313 | 1259 ft | 139 kts | 39° |
| 2026-05-05 13:16 | 55.55349 | 12.54390 | 1063 ft | 128 kts | 37° |
| 2026-05-05 13:16 | 55.55993 | 12.55382 | 888 ft | 119 kts | 38° |
| 2026-05-05 13:16 | 55.56609 | 12.56332 | 733 ft | 117 kts | 38° |
| 2026-05-05 13:17 | 55.57221 | 12.57277 | 577 ft | 116 kts | 39° |
| 2026-05-05 13:17 | 55.57829 | 12.58218 | 409 ft | 116 kts | 38° |
| 2026-05-05 13:17 | 55.58432 | 12.59134 | 261 ft | 115 kts | 38° |
| 2026-05-05 13:17 | 55.59035 | 12.60057 | 107 ft | 114 kts | 40° |
| 2026-05-05 13:18 | 55.59623 | 12.60972 | 27 ft | 106 kts | 41° |
| 2026-05-05 13:18 | 55.60045 | 12.61623 | 23 ft | 52 kts | 41° |
| 2026-05-05 13:18 | 55.60290 | 12.62006 | 24 ft | 44 kts | 41° |
| 2026-05-05 13:18 | 55.60528 | 12.62296 | 27 ft | 35 kts | 19° |
| 2026-05-05 13:19 | 55.60712 | 12.62372 | 25 ft | 26 kts | 13° |
| 2026-05-05 13:19 | 55.60871 | 12.62527 | 26 ft | 27 kts | 41° |
| 2026-05-05 13:19 | 55.61016 | 12.62755 | 22 ft | 29 kts | 41° |
| 2026-05-05 13:19 | 55.61153 | 12.62964 | 26 ft | 26 kts | 40° |
| 2026-05-05 13:20 | 55.61296 | 12.63183 | 24 ft | 28 kts | 41° |
| 2026-05-05 13:20 | 55.61422 | 12.63379 | 21 ft | 23 kts | 41° |
| 2026-05-05 13:20 | 55.61548 | 12.63576 | 25 ft | 25 kts | 42° |
| 2026-05-05 13:20 | 55.61686 | 12.63789 | 21 ft | 27 kts | 41° |
| 2026-05-05 13:21 | 55.61826 | 12.64005 | 25 ft | 26 kts | 40° |
| 2026-05-05 13:21 | 55.61931 | 12.64219 | 23 ft | 23 kts | 74° |
| 2026-05-05 13:21 | 55.61977 | 12.64488 | 24 ft | 17 kts | 54° |
| 2026-05-05 13:21 | 55.62053 | 12.64592 | 22 ft | 14 kts | 32° |
| 2026-05-05 13:22 | 55.62140 | 12.64693 | 23 ft | 16 kts | 33° |
| 2026-05-05 13:22 | 55.62242 | 12.64813 | 23 ft | 19 kts | 35° |
| 2026-05-05 13:22 | 55.62314 | 12.64937 | 25 ft | 12 kts | 81° |
| 2026-05-05 13:22 | 55.62280 | 12.65080 | 24 ft | 14 kts | 104° |
| 2026-05-05 13:23 | 55.62290 | 12.65266 | 22 ft | 17 kts | 86° |
| 2026-05-05 13:23 | 55.62294 | 12.65494 | 24 ft | 20 kts | 89° |
| 2026-05-05 13:23 | 55.62298 | 12.65761 | 23 ft | 23 kts | 88° |
| 2026-05-05 13:23 | 55.62342 | 12.66037 | 22 ft | 25 kts | 43° |
| 2026-05-05 13:24 | 55.62448 | 12.66197 | 23 ft | 18 kts | 30° |
| 2026-05-05 13:24 | 55.62556 | 12.66147 | 25 ft | 18 kts | 344° |
| 2026-05-05 13:24 | 55.62664 | 12.66192 | 23 ft | 17 kts | 37° |
| 2026-05-05 13:24 | 55.62732 | 12.66299 | 21 ft | 10 kts | 42° |
| 2026-05-05 13:25 | 55.62756 | 12.66392 | 23 ft | 6 kts | 104° |
| 2026-05-05 13:25 | 55.62751 | 12.66411 | 21 ft | 3 kts | 115° |
| 2026-05-05 13:25 | 55.62731 | 12.66459 | 21 ft | 3 kts | 130° |
| 2026-05-05 13:25 | 55.62723 | 12.66476 | 21 ft | 2 kts | 130° |
| 2026-05-05 13:26 | 55.62718 | 12.66485 | 23 ft | 0 kts | 131° |